createdAt,value
2023-01-07T00:01:01.539Z,81.67
2023-01-07T00:03:29.842Z,81.61
2023-01-07T00:06:01.502Z,81.46
2023-01-07T00:08:32.044Z,81.86
2023-01-07T00:11:02.590Z,81.76
2023-01-07T00:13:31.041Z,81.17
2023-01-07T00:15:59.679Z,81.51
2023-01-07T00:18:27.947Z,80.96
2023-01-07T00:20:57.419Z,81.07
2023-01-07T00:23:25.438Z,80.74
2023-01-07T00:26:01.374Z,80.23
2023-01-07T00:28:29.512Z,80.33
2023-01-07T00:31:00.589Z,80.19
2023-01-07T00:33:29.208Z,79.59
2023-01-07T00:36:01.002Z,78.85
2023-01-07T00:38:29.410Z,78.70
2023-01-07T00:40:58.964Z,78.93
2023-01-07T00:43:26.944Z,79.06
2023-01-07T00:45:55.298Z,78.84
2023-01-07T00:48:23.924Z,78.90
2023-01-07T00:50:53.177Z,79.31
2023-01-07T00:53:22.039Z,78.66
2023-01-07T00:55:50.840Z,78.90
2023-01-07T00:58:22.541Z,78.19
2023-01-07T01:00:55.870Z,78.23
2023-01-07T01:03:24.621Z,78.60
2023-01-07T01:05:53.301Z,78.52
2023-01-07T01:08:21.314Z,78.07
2023-01-07T01:10:49.535Z,78.09
2023-01-07T01:13:18.940Z,78.64
2023-01-07T01:15:50.114Z,79.12
2023-01-07T01:18:18.212Z,79.33
2023-01-07T01:20:46.466Z,79.29
2023-01-07T01:23:14.375Z,79.14
2023-01-07T01:25:42.695Z,79.85
2023-01-07T01:28:11.363Z,79.75
2023-01-07T01:30:39.547Z,80.12
2023-01-07T01:33:09.920Z,80.09
2023-01-07T01:35:42.382Z,80.30
2023-01-07T01:38:10.673Z,79.88
2023-01-07T01:40:38.917Z,79.40
2023-01-07T01:43:27.232Z,79.30
2023-01-07T01:45:55.528Z,79.25
2023-01-07T01:48:25.075Z,79.02
2023-01-07T01:50:54.021Z,79.11
2023-01-07T01:53:24.041Z,78.85
2023-01-07T01:55:55.305Z,79.35
2023-01-07T01:58:26.320Z,78.61
2023-01-07T02:00:55.609Z,79.67
2023-01-07T02:03:26.527Z,79.37
2023-01-07T02:05:54.781Z,79.65
2023-01-07T02:08:23.260Z,79.50
2023-01-07T02:11:06.047Z,79.78
2023-01-07T02:13:41.230Z,79.63
2023-01-07T02:16:16.019Z,79.99
2023-01-07T02:18:56.647Z,79.93
2023-01-07T02:21:33.786Z,79.96
2023-01-07T02:24:44.111Z,79.26
2023-01-07T02:27:21.132Z,79.88
2023-01-07T02:30:16.181Z,79.16
2023-01-07T02:32:59.084Z,79.38
2023-01-07T02:35:41.875Z,79.52
2023-01-07T02:38:16.664Z,79.13
2023-01-07T02:40:51.521Z,79.34
2023-01-07T02:43:27.196Z,79.48
2023-01-07T02:46:02.323Z,78.84
2023-01-07T02:48:32.531Z,79.15
2023-01-07T02:51:01.041Z,78.77
2023-01-07T02:53:29.238Z,78.56
2023-01-07T02:56:07.242Z,78.38
2023-01-07T02:58:57.201Z,78.15
2023-01-07T03:02:01.162Z,78.30
2023-01-07T03:04:42.591Z,78.02
2023-01-07T03:07:20.428Z,77.53
2023-01-07T03:09:56.547Z,77.45
2023-01-07T03:12:29.807Z,77.59
2023-01-07T03:15:02.333Z,77.15
2023-01-07T03:17:35.776Z,76.87
2023-01-07T03:20:07.652Z,77.72
2023-01-07T03:22:35.672Z,78.02
2023-01-07T03:25:04.971Z,78.07
2023-01-07T03:27:34.860Z,78.21
2023-01-07T03:30:04.635Z,78.53
2023-01-07T03:32:39.621Z,78.41
2023-01-07T03:35:10.296Z,78.53
2023-01-07T03:37:39.636Z,78.83
2023-01-07T03:40:09.986Z,78.93
2023-01-07T03:42:40.104Z,79.26
2023-01-07T03:45:13.162Z,79.80
2023-01-07T03:47:44.733Z,79.63
2023-01-07T03:50:14.735Z,79.55
2023-01-07T03:52:44.573Z,79.08
2023-01-07T03:55:12.941Z,78.95
2023-01-07T03:57:41.094Z,78.49
2023-01-07T04:00:11.700Z,78.45
2023-01-07T04:02:42.882Z,78.85
2023-01-07T04:05:21.063Z,79.19
2023-01-07T04:07:49.587Z,79.56
2023-01-07T04:10:18.418Z,79.31
2023-01-07T04:12:46.643Z,79.45
2023-01-07T04:15:15.025Z,80.10
2023-01-07T04:17:43.368Z,81.01
2023-01-07T04:20:12.220Z,80.99
2023-01-07T04:22:41.553Z,80.89
2023-01-07T04:25:10.382Z,81.08
2023-01-07T04:27:39.177Z,81.41
2023-01-07T04:30:08.347Z,81.55
2023-01-07T04:32:36.366Z,82.09
2023-01-07T04:35:05.132Z,82.49
2023-01-07T04:37:33.498Z,82.65
2023-01-07T04:40:03.837Z,82.71
2023-01-07T04:42:36.070Z,82.83
2023-01-07T04:45:06.480Z,81.99
2023-01-07T04:47:34.463Z,82.14
2023-01-07T04:50:02.779Z,82.73
2023-01-07T04:52:33.509Z,82.64
2023-01-07T04:55:01.942Z,83.06
2023-01-07T04:57:31.236Z,82.40
2023-01-07T05:00:00.164Z,82.22
2023-01-07T05:02:28.261Z,82.79
2023-01-07T05:04:56.950Z,82.78
2023-01-07T05:07:24.912Z,83.01
2023-01-07T05:09:54.320Z,83.18
2023-01-07T05:12:22.307Z,82.67
2023-01-07T05:14:52.107Z,83.62
2023-01-07T05:17:20.068Z,83.39
2023-01-07T05:19:48.382Z,83.51
2023-01-07T05:22:17.140Z,83.60
2023-01-07T05:24:45.377Z,84.45
2023-01-07T05:27:13.524Z,84.09
2023-01-07T05:29:42.450Z,83.78
2023-01-07T05:32:11.844Z,83.83
2023-01-07T05:34:41.648Z,83.55
2023-01-07T05:37:09.650Z,83.75
2023-01-07T05:39:39.697Z,83.48
2023-01-07T05:42:08.442Z,84.01
2023-01-07T05:44:36.654Z,83.94
2023-01-07T05:47:04.519Z,83.61
2023-01-07T05:49:34.022Z,83.47
2023-01-07T05:52:01.941Z,83.66
2023-01-07T05:54:30.263Z,83.30
2023-01-07T05:56:58.138Z,83.20
2023-01-07T05:59:26.268Z,83.59
2023-01-07T06:01:54.236Z,83.58
2023-01-07T06:04:22.414Z,84.04
2023-01-07T06:06:51.680Z,84.06
2023-01-07T06:09:19.980Z,83.68
2023-01-07T06:11:47.925Z,83.90
2023-01-07T06:14:16.178Z,83.62
2023-01-07T06:16:44.161Z,84.24
2023-01-07T06:19:12.428Z,84.13
2023-01-07T06:21:40.379Z,83.70
2023-01-07T06:24:09.985Z,84.00
2023-01-07T06:26:37.911Z,83.80
2023-01-07T06:29:06.103Z,82.99
2023-01-07T06:31:34.320Z,82.85
2023-01-07T06:34:02.724Z,82.27
2023-01-07T06:36:30.632Z,81.87
2023-01-07T06:38:58.836Z,81.16
2023-01-07T06:41:28.145Z,80.54
2023-01-07T06:43:57.649Z,80.21
2023-01-07T06:46:26.197Z,80.43
2023-01-07T06:48:54.368Z,79.86
2023-01-07T06:51:22.320Z,79.73
2023-01-07T06:53:50.527Z,80.09
2023-01-07T06:56:18.448Z,79.76
2023-01-07T06:58:47.940Z,79.75
2023-01-07T07:01:15.998Z,80.25
2023-01-07T07:03:44.239Z,80.07
2023-01-07T07:06:12.273Z,80.68
2023-01-07T07:08:40.460Z,80.96
2023-01-07T07:11:08.393Z,80.66
2023-01-07T07:13:36.668Z,79.77
2023-01-07T07:16:06.568Z,79.40
2023-01-07T07:18:34.941Z,78.96
2023-01-07T07:21:02.925Z,78.81
2023-01-07T07:23:31.352Z,79.38
2023-01-07T07:25:59.292Z,79.13
2023-01-07T07:28:27.488Z,78.29
2023-01-07T07:30:55.455Z,78.44
2023-01-07T07:33:24.981Z,78.62
2023-01-07T07:35:52.968Z,78.42
2023-01-07T07:38:21.325Z,78.14
2023-01-07T07:40:49.383Z,77.74
2023-01-07T07:43:17.730Z,77.85
2023-01-07T07:45:45.825Z,77.79
2023-01-07T07:48:15.416Z,77.69
2023-01-07T07:50:44.741Z,76.97
2023-01-07T07:53:13.971Z,77.02
2023-01-07T07:55:41.888Z,76.91
2023-01-07T07:58:10.007Z,76.63
2023-01-07T08:00:37.927Z,76.83
2023-01-07T08:03:06.509Z,76.49
2023-01-07T08:05:34.625Z,76.56
2023-01-07T08:08:04.353Z,76.81
2023-01-07T08:10:32.404Z,76.63
2023-01-07T08:13:00.555Z,76.65
2023-01-07T08:15:28.496Z,76.89
2023-01-07T08:18:00.559Z,76.21
2023-01-07T08:20:28.771Z,76.47
2023-01-07T08:22:59.539Z,76.57
2023-01-07T08:25:29.713Z,75.76
2023-01-07T08:27:58.501Z,76.26
2023-01-07T08:30:27.111Z,76.09
2023-01-07T08:32:55.413Z,76.00
2023-01-07T08:35:23.863Z,76.52
2023-01-07T08:37:52.063Z,76.46
2023-01-07T08:40:20.227Z,76.86
2023-01-07T08:42:49.710Z,76.28
2023-01-07T08:45:17.686Z,75.27
2023-01-07T08:47:47.400Z,74.84
2023-01-07T08:50:15.527Z,74.51
2023-01-07T08:52:46.556Z,74.85
2023-01-07T08:55:14.791Z,74.78
2023-01-07T08:57:42.993Z,75.40
2023-01-07T09:00:15.741Z,75.45
2023-01-07T09:02:44.483Z,75.62
2023-01-07T09:05:12.938Z,75.46
2023-01-07T09:07:41.199Z,74.43
2023-01-07T09:10:10.433Z,74.28
2023-01-07T09:12:38.983Z,74.00
2023-01-07T09:15:08.366Z,73.62
2023-01-07T09:17:37.897Z,73.14
2023-01-07T09:20:07.437Z,73.12
2023-01-07T09:22:37.219Z,72.33
2023-01-07T09:25:05.880Z,72.12
2023-01-07T09:27:34.382Z,71.97
2023-01-07T09:30:02.384Z,72.11
2023-01-07T09:32:30.627Z,71.60
2023-01-07T09:34:59.911Z,71.26
2023-01-07T09:37:28.240Z,71.28
2023-01-07T09:39:56.178Z,70.25
2023-01-07T09:42:27.475Z,70.26
2023-01-07T09:45:06.435Z,69.67
2023-01-07T09:47:37.108Z,68.71
2023-01-07T09:50:12.521Z,68.49
2023-01-07T09:52:44.070Z,68.40
2023-01-07T09:55:16.124Z,68.52
2023-01-07T09:57:44.325Z,68.68
2023-01-07T10:00:17.123Z,68.75
2023-01-07T10:02:55.509Z,68.83
2023-01-07T10:05:33.391Z,68.71
2023-01-07T10:08:29.138Z,68.53
2023-01-07T10:11:00.481Z,67.99
2023-01-07T10:13:58.928Z,68.01
2023-01-07T10:16:34.417Z,68.26
2023-01-07T10:19:05.829Z,68.34
2023-01-07T10:21:39.945Z,68.14
2023-01-07T10:24:13.548Z,67.49
2023-01-07T10:26:43.898Z,67.94
2023-01-07T10:29:14.657Z,66.73
2023-01-07T10:31:43.176Z,67.28
2023-01-07T10:34:15.517Z,67.16
2023-01-07T10:36:56.163Z,67.36
2023-01-07T10:39:28.459Z,67.09
2023-01-07T10:42:03.712Z,67.15
2023-01-07T10:44:46.947Z,66.86
2023-01-07T10:47:24.294Z,65.64
2023-01-07T10:50:09.055Z,65.57
2023-01-07T10:52:44.082Z,65.53
2023-01-07T10:55:35.972Z,65.19
2023-01-07T10:58:04.444Z,65.02
2023-01-07T11:00:33.454Z,65.19
2023-01-07T11:03:01.425Z,65.03
2023-01-07T11:05:35.700Z,64.83
2023-01-07T11:08:06.168Z,64.95
2023-01-07T11:10:36.146Z,64.57
2023-01-07T11:13:07.915Z,64.16
2023-01-07T11:15:37.977Z,64.86
2023-01-07T11:18:08.459Z,65.22
2023-01-07T11:20:47.605Z,65.46
2023-01-07T11:23:34.226Z,65.60
2023-01-07T11:26:17.765Z,65.75
2023-01-07T11:28:52.668Z,65.85
2023-01-07T11:31:21.625Z,66.96
2023-01-07T11:34:01.308Z,65.08
2023-01-07T11:36:42.006Z,64.84
2023-01-07T11:39:12.904Z,64.13
2023-01-07T11:41:52.325Z,64.35
2023-01-07T11:44:20.292Z,65.45
2023-01-07T11:46:48.690Z,65.40
2023-01-07T11:49:23.833Z,64.87
2023-01-07T11:51:52.222Z,65.58
2023-01-07T11:54:24.027Z,65.26
2023-01-07T11:56:55.231Z,65.07
2023-01-07T11:59:31.284Z,65.68
2023-01-07T12:02:00.483Z,66.28
2023-01-07T12:04:30.698Z,65.96
2023-01-07T12:07:01.278Z,65.21
2023-01-07T12:09:38.631Z,65.40
2023-01-07T12:12:27.714Z,64.98
2023-01-07T12:14:55.989Z,65.00
2023-01-07T12:17:25.581Z,64.91
2023-01-07T12:20:05.149Z,64.39
2023-01-07T12:22:38.951Z,65.08
2023-01-07T12:25:21.644Z,64.24
2023-01-07T12:27:56.450Z,64.02
2023-01-07T12:30:49.519Z,64.38
2023-01-07T12:33:25.628Z,65.03
2023-01-07T12:35:54.143Z,63.76
2023-01-07T12:38:25.146Z,62.84
2023-01-07T12:40:57.583Z,63.48
2023-01-07T12:43:29.738Z,62.66
2023-01-07T12:46:00.900Z,62.29
2023-01-07T12:48:33.038Z,62.32
2023-01-07T12:51:03.767Z,61.88
2023-01-07T12:53:36.963Z,61.62
2023-01-07T12:56:11.407Z,61.04
2023-01-07T12:58:45.240Z,60.09
2023-01-07T13:01:20.359Z,59.84
2023-01-07T13:03:57.994Z,56.76
2023-01-07T13:06:37.124Z,53.52
2023-01-07T13:09:17.661Z,51.87
2023-01-07T13:12:07.488Z,52.95
2023-01-07T13:14:57.734Z,52.79
2023-01-07T13:17:27.410Z,52.40
2023-01-07T13:19:56.287Z,52.38
2023-01-07T13:22:30.307Z,53.15
2023-01-07T13:25:12.160Z,53.83
2023-01-07T13:27:56.262Z,49.56
2023-01-07T13:30:27.631Z,46.18
2023-01-07T13:33:05.759Z,46.68
2023-01-07T13:35:56.422Z,47.73
2023-01-07T13:38:42.317Z,46.57
2023-01-07T13:41:39.569Z,47.34
2023-01-07T13:44:24.139Z,44.84
2023-01-07T13:46:52.571Z,43.85
2023-01-07T13:49:27.328Z,43.90
2023-01-07T13:51:55.610Z,43.18
2023-01-07T13:54:56.144Z,40.83
2023-01-07T13:57:45.698Z,40.77
2023-01-07T14:00:41.474Z,44.32
2023-01-07T14:03:33.047Z,43.88
2023-01-07T14:06:42.974Z,42.56
2023-01-07T14:09:26.861Z,41.15
2023-01-07T14:12:20.827Z,40.77
2023-01-07T14:14:56.971Z,41.97
2023-01-07T14:17:34.716Z,41.06
2023-01-07T14:20:08.387Z,41.96
2023-01-07T14:22:41.002Z,41.64
2023-01-07T14:25:22.964Z,40.93
2023-01-07T14:28:03.947Z,40.52
2023-01-07T14:30:34.086Z,40.59
2023-01-07T14:33:04.979Z,40.96
2023-01-07T14:35:34.801Z,41.57
2023-01-07T14:38:03.272Z,42.46
2023-01-07T14:40:58.091Z,43.05
2023-01-07T14:43:48.967Z,43.41
2023-01-07T14:46:46.363Z,44.33
2023-01-07T14:49:48.428Z,42.79
2023-01-07T14:52:40.228Z,42.97
2023-01-07T14:55:25.249Z,42.65
2023-01-07T14:58:04.321Z,43.13
2023-01-07T15:00:47.255Z,44.19
2023-01-07T15:03:29.715Z,43.55
2023-01-07T15:06:22.032Z,43.16
2023-01-07T15:09:10.068Z,43.72
2023-01-07T15:11:53.186Z,46.06
2023-01-07T15:14:43.704Z,47.12
2023-01-07T15:17:14.080Z,48.49
2023-01-07T15:19:43.314Z,49.16
2023-01-07T15:22:44.187Z,49.10
2023-01-07T15:25:31.130Z,49.46
2023-01-07T15:28:04.150Z,51.19
2023-01-07T15:30:44.888Z,53.46
2023-01-07T15:33:38.988Z,54.86
2023-01-07T15:36:10.385Z,55.70
2023-01-07T15:38:42.505Z,56.47
2023-01-07T15:41:23.708Z,57.93
2023-01-07T15:43:51.920Z,57.70
2023-01-07T15:46:20.809Z,57.59
2023-01-07T15:49:17.273Z,58.42
2023-01-07T15:51:47.937Z,59.44
2023-01-07T15:54:37.239Z,59.89
2023-01-07T15:57:08.456Z,60.32
2023-01-07T15:59:39.209Z,60.61
2023-01-07T16:02:17.936Z,61.40
2023-01-07T16:04:48.432Z,61.09
2023-01-07T16:07:26.782Z,61.26
2023-01-07T16:09:56.518Z,61.55
2023-01-07T16:12:35.841Z,62.06
2023-01-07T16:15:22.189Z,63.08
2023-01-07T16:17:51.521Z,64.00
2023-01-07T16:20:24.642Z,64.33
2023-01-07T16:22:59.843Z,63.76
2023-01-07T16:25:32.791Z,63.59
2023-01-07T16:28:01.071Z,63.88
2023-01-07T16:30:29.080Z,63.70
2023-01-07T16:32:57.626Z,64.17
2023-01-07T16:35:29.535Z,63.52
2023-01-07T16:37:57.833Z,63.71
2023-01-07T16:40:32.319Z,63.54
2023-01-07T16:43:00.427Z,64.15
2023-01-07T16:45:30.446Z,63.97
2023-01-07T16:48:20.341Z,64.27
2023-01-07T16:50:49.656Z,64.83
2023-01-07T16:53:27.257Z,64.49
2023-01-07T16:56:14.490Z,64.19
2023-01-07T16:58:44.330Z,64.50
2023-01-07T17:01:12.609Z,64.56
2023-01-07T17:03:49.352Z,64.80
2023-01-07T17:06:18.153Z,64.27
2023-01-07T17:08:51.304Z,64.54
2023-01-07T17:11:24.434Z,64.34
2023-01-07T17:13:53.683Z,65.03
2023-01-07T17:16:27.734Z,65.29
2023-01-07T17:18:56.877Z,66.75
2023-01-07T17:21:45.457Z,67.92
2023-01-07T17:24:45.345Z,69.05
2023-01-07T17:27:21.918Z,69.12
2023-01-07T17:29:50.142Z,69.18
2023-01-07T17:32:18.087Z,68.32
2023-01-07T17:34:46.267Z,68.22
2023-01-07T17:37:16.050Z,68.17
2023-01-07T17:39:45.156Z,67.99
2023-01-07T17:42:42.019Z,67.09
2023-01-07T17:45:16.134Z,67.47
2023-01-07T17:47:44.123Z,67.89
2023-01-07T17:50:14.124Z,68.25
2023-01-07T17:52:43.572Z,68.13
2023-01-07T17:55:15.216Z,68.44
2023-01-07T17:57:44.820Z,68.05
2023-01-07T18:00:19.176Z,67.86
2023-01-07T18:02:47.372Z,67.78
2023-01-07T18:05:20.624Z,68.26
2023-01-07T18:07:49.214Z,69.00
2023-01-07T18:10:19.432Z,67.80
2023-01-07T18:12:48.101Z,67.59
2023-01-07T18:15:22.114Z,67.91
2023-01-07T18:17:50.264Z,67.41
2023-01-07T18:20:19.329Z,67.25
2023-01-07T18:22:47.835Z,66.59
2023-01-07T18:25:18.101Z,65.91
2023-01-07T18:27:47.939Z,66.04
2023-01-07T18:30:18.136Z,66.15
2023-01-07T18:32:46.331Z,66.65
2023-01-07T18:35:15.164Z,66.83
2023-01-07T18:37:43.242Z,66.70
2023-01-07T18:40:11.990Z,66.48
2023-01-07T18:42:39.938Z,67.95
2023-01-07T18:45:10.610Z,68.13
2023-01-07T18:47:38.568Z,69.76
2023-01-07T18:50:08.377Z,69.71
2023-01-07T18:52:38.418Z,69.45
2023-01-07T18:55:07.409Z,70.16
2023-01-07T18:57:35.635Z,69.84
2023-01-07T19:00:04.321Z,70.02
2023-01-07T19:02:33.809Z,70.09
2023-01-07T19:05:02.039Z,70.31
2023-01-07T19:07:30.899Z,70.35
2023-01-07T19:09:59.236Z,70.02
2023-01-07T19:12:27.091Z,69.90
2023-01-07T19:14:55.465Z,69.41
2023-01-07T19:17:23.450Z,69.45
2023-01-07T19:19:52.921Z,68.92
2023-01-07T19:22:21.096Z,69.85
2023-01-07T19:24:49.242Z,69.56
2023-01-07T19:27:17.176Z,69.22
2023-01-07T19:29:45.389Z,69.48
2023-01-07T19:32:13.294Z,70.35
2023-01-07T19:34:41.454Z,70.40
2023-01-07T19:37:10.764Z,69.91
2023-01-07T19:39:39.887Z,69.56
2023-01-07T19:42:09.820Z,69.81
2023-01-07T19:44:38.385Z,68.93
2023-01-07T19:47:06.346Z,68.64
2023-01-07T19:49:35.991Z,68.78
2023-01-07T19:52:04.240Z,68.75
2023-01-07T19:54:35.045Z,68.64
2023-01-07T19:57:03.012Z,68.51
2023-01-07T19:59:33.245Z,68.99
2023-01-07T20:02:01.605Z,68.22
2023-01-07T20:04:30.037Z,68.34
2023-01-07T20:06:57.972Z,68.26
2023-01-07T20:09:26.139Z,67.86
2023-01-07T20:11:55.409Z,67.91
2023-01-07T20:14:23.592Z,67.95
2023-01-07T20:16:51.591Z,67.27
2023-01-07T20:19:19.851Z,67.78
2023-01-07T20:21:47.763Z,67.53
2023-01-07T20:24:16.151Z,67.43
2023-01-07T20:26:44.107Z,67.54
2023-01-07T20:29:13.591Z,67.08
2023-01-07T20:31:41.614Z,67.12
2023-01-07T20:34:09.860Z,67.34
2023-01-07T20:36:37.972Z,67.05
2023-01-07T20:39:06.352Z,67.70
2023-01-07T20:41:35.895Z,67.55
2023-01-07T20:44:05.694Z,67.49
2023-01-07T20:46:35.457Z,68.04
2023-01-07T20:49:03.760Z,67.81
2023-01-07T20:51:32.056Z,67.83
2023-01-07T20:54:00.473Z,67.51
2023-01-07T20:56:31.820Z,67.90
2023-01-07T20:59:00.490Z,67.44
2023-01-07T21:01:29.484Z,67.11
2023-01-07T21:04:01.298Z,67.40
2023-01-07T21:06:29.233Z,67.17
2023-01-07T21:08:57.683Z,67.06
2023-01-07T21:11:25.862Z,67.30
2023-01-07T21:13:56.008Z,67.30
2023-01-07T21:16:24.460Z,66.65
2023-01-07T21:18:52.741Z,66.85
2023-01-07T21:21:24.501Z,66.11
2023-01-07T21:23:52.995Z,66.47
2023-01-07T21:26:21.373Z,66.38
2023-01-07T21:28:49.619Z,66.35
2023-01-07T21:31:17.909Z,66.12
2023-01-07T21:33:46.152Z,66.20
2023-01-07T21:36:15.498Z,66.24
2023-01-07T21:38:45.788Z,66.56
2023-01-07T21:41:16.051Z,66.95
2023-01-07T21:43:45.083Z,66.76
2023-01-07T21:46:13.434Z,66.95
2023-01-07T21:48:45.080Z,67.68
2023-01-07T21:51:18.194Z,68.20
2023-01-07T21:53:48.162Z,68.60
2023-01-07T21:56:17.601Z,68.69
2023-01-07T21:58:46.622Z,69.12
2023-01-07T22:01:15.311Z,69.67
2023-01-07T22:03:46.003Z,69.19
2023-01-07T22:06:19.293Z,68.76
2023-01-07T22:08:49.263Z,68.67
2023-01-07T22:11:18.572Z,68.42
2023-01-07T22:13:50.475Z,68.76
2023-01-07T22:16:19.043Z,68.55
2023-01-07T22:18:47.310Z,68.95
2023-01-07T22:21:15.464Z,68.80
2023-01-07T22:23:44.752Z,68.66
2023-01-07T22:26:15.226Z,69.44
2023-01-07T22:28:45.029Z,69.82
2023-01-07T22:31:16.847Z,69.88
2023-01-07T22:33:45.118Z,70.29
2023-01-07T22:36:14.526Z,70.10
2023-01-07T22:38:42.756Z,70.09
2023-01-07T22:41:11.141Z,70.52
2023-01-07T22:43:40.797Z,70.20
2023-01-07T22:46:11.272Z,70.01
2023-01-07T22:48:39.879Z,69.74
2023-01-07T22:51:11.202Z,69.95
2023-01-07T22:53:39.633Z,69.69
2023-01-07T22:56:08.395Z,69.38
2023-01-07T22:58:36.633Z,69.54
2023-01-07T23:01:14.686Z,69.76
2023-01-07T23:03:43.554Z,69.65
2023-01-07T23:06:12.989Z,70.16
2023-01-07T23:08:41.501Z,70.44
2023-01-07T23:11:10.550Z,69.77
2023-01-07T23:13:38.802Z,69.96
2023-01-07T23:16:07.736Z,69.49
2023-01-07T23:18:37.313Z,69.80
2023-01-07T23:21:05.926Z,69.35
2023-01-07T23:23:34.117Z,68.88
2023-01-07T23:26:02.100Z,68.66
2023-01-07T23:28:30.287Z,68.91
2023-01-07T23:31:01.523Z,69.24
2023-01-07T23:33:29.735Z,68.69
2023-01-07T23:36:03.778Z,68.60
2023-01-07T23:38:31.962Z,68.89
2023-01-07T23:41:03.559Z,69.02
2023-01-07T23:43:32.106Z,68.98
2023-01-07T23:46:00.842Z,69.47
2023-01-07T23:48:31.236Z,69.92
2023-01-07T23:51:11.694Z,69.96
2023-01-07T23:53:40.096Z,70.58
2023-01-07T23:56:08.813Z,70.09
2023-01-07T23:58:37.530Z,70.33
